createdAt,value
2018-04-17T00:01:17.823Z,5.33
2018-04-17T00:03:45.088Z,5.80
2018-04-17T00:06:12.355Z,5.47
2018-04-17T00:08:39.620Z,5.30
2018-04-17T00:11:06.878Z,5.67
2018-04-17T00:13:34.130Z,5.23
2018-04-17T00:16:01.411Z,5.43
2018-04-17T00:18:28.671Z,6.10
2018-04-17T00:20:55.943Z,5.57
2018-04-17T00:23:23.191Z,6.23
2018-04-17T00:25:50.475Z,5.40
2018-04-17T00:28:17.726Z,5.37
2018-04-17T00:30:44.982Z,5.60
2018-04-17T00:33:12.260Z,4.87
2018-04-17T00:35:39.511Z,6.20
2018-04-17T00:38:06.786Z,6.63
2018-04-17T00:40:34.045Z,5.67
2018-04-17T00:43:01.334Z,5.67
2018-04-17T00:45:28.591Z,5.97
2018-04-17T00:47:55.867Z,5.00
2018-04-17T00:50:23.119Z,5.60
2018-04-17T00:52:50.398Z,6.27
2018-04-17T00:55:17.663Z,5.37
2018-04-17T00:57:44.943Z,5.13
2018-04-17T01:00:12.195Z,5.43
2018-04-17T01:02:39.478Z,5.80
2018-04-17T01:05:06.739Z,5.30
2018-04-17T01:07:33.983Z,5.40
2018-04-17T01:10:01.264Z,5.47
2018-04-17T01:12:28.514Z,6.57
2018-04-17T01:14:55.787Z,4.70
2018-04-17T01:17:23.048Z,5.90
2018-04-17T01:19:50.316Z,5.10
2018-04-17T01:22:17.567Z,5.80
2018-04-17T01:24:44.846Z,6.20
2018-04-17T01:27:12.107Z,5.90
2018-04-17T01:29:39.378Z,6.00
2018-04-17T01:32:06.636Z,5.00
2018-04-17T01:34:33.908Z,5.90
2018-04-17T01:37:01.159Z,5.03
2018-04-17T01:39:28.454Z,4.77
2018-04-17T01:41:55.695Z,4.73
2018-04-17T01:44:22.942Z,5.20
2018-04-17T01:46:50.215Z,6.60
2018-04-17T01:49:17.472Z,6.20
2018-04-17T01:51:44.754Z,6.30
2018-04-17T01:54:12.010Z,6.23
2018-04-17T01:56:39.279Z,5.50
2018-04-17T01:59:06.547Z,5.60
2018-04-17T02:01:33.810Z,5.57
2018-04-17T02:04:01.058Z,6.43
2018-04-17T02:06:28.332Z,5.30
2018-04-17T02:08:55.587Z,5.20
2018-04-17T02:11:22.874Z,6.10
2018-04-17T02:13:50.119Z,4.83
2018-04-17T02:16:17.390Z,5.90
2018-04-17T02:18:44.647Z,5.73
2018-04-17T02:21:11.912Z,6.03
2018-04-17T02:23:39.188Z,6.47
2018-04-17T02:26:06.447Z,6.40
2018-04-17T02:28:33.727Z,5.70
2018-04-17T02:31:00.992Z,6.83
2018-04-17T02:33:28.266Z,6.70
2018-04-17T02:35:55.523Z,5.70
2018-04-17T02:38:22.794Z,6.20
2018-04-17T02:40:50.049Z,5.80
2018-04-17T02:43:17.318Z,6.83
2018-04-17T02:45:44.575Z,6.20
2018-04-17T02:48:11.851Z,6.07
2018-04-17T02:50:39.118Z,6.57
2018-04-17T02:53:06.391Z,7.23
2018-04-17T02:55:33.655Z,7.70
2018-04-17T02:58:00.931Z,7.37
2018-04-17T03:00:28.200Z,6.60
2018-04-17T03:02:55.471Z,8.30
2018-04-17T03:05:22.730Z,7.90
2018-04-17T03:07:50.011Z,7.83
2018-04-17T03:10:17.270Z,8.47
2018-04-17T03:12:44.564Z,9.50
2018-04-17T03:15:11.819Z,8.00
2018-04-17T03:17:39.075Z,8.47
2018-04-17T03:20:06.360Z,9.67
2018-04-17T03:22:33.625Z,8.43
2018-04-17T03:25:00.903Z,10.70
2018-04-17T03:27:28.171Z,8.57
2018-04-17T03:29:55.448Z,7.80
2018-04-17T03:32:22.760Z,8.43
2018-04-17T03:34:50.044Z,10.07
2018-04-17T03:37:17.309Z,10.03
2018-04-17T03:39:44.590Z,10.97
2018-04-17T03:42:11.851Z,11.33
2018-04-17T03:44:39.130Z,10.37
2018-04-17T03:47:06.396Z,9.77
2018-04-17T03:49:33.675Z,10.20
2018-04-17T03:52:00.945Z,10.07
2018-04-17T03:54:28.215Z,11.20
2018-04-17T03:56:55.487Z,10.90
2018-04-17T03:59:22.778Z,10.33
2018-04-17T04:01:50.044Z,11.07
2018-04-17T04:04:17.339Z,9.77
2018-04-17T04:06:44.595Z,10.70
2018-04-17T04:09:11.863Z,12.23
2018-04-17T04:11:39.146Z,10.73
2018-04-17T04:14:06.426Z,11.10
2018-04-17T04:16:39.539Z,10.63
2018-04-17T04:19:12.568Z,11.07
2018-04-17T04:21:45.679Z,10.07
2018-04-17T04:24:18.750Z,11.53
2018-04-17T04:26:46.031Z,11.23
2018-04-17T04:29:13.302Z,11.13
2018-04-17T04:31:40.578Z,11.73
2018-04-17T04:34:07.847Z,11.23
2018-04-17T04:36:35.119Z,11.40
2018-04-17T04:39:02.382Z,9.30
2018-04-17T04:41:29.663Z,11.73
2018-04-17T04:43:56.943Z,11.00
2018-04-17T04:46:24.214Z,11.10
2018-04-17T04:48:51.479Z,8.70
2018-04-17T04:51:18.760Z,10.53
2018-04-17T04:53:46.023Z,11.00
2018-04-17T04:56:13.306Z,8.20
2018-04-17T04:58:40.566Z,9.83
2018-04-17T05:01:07.831Z,9.20
2018-04-17T05:03:35.111Z,9.10
2018-04-17T05:06:02.371Z,9.43
2018-04-17T05:08:29.647Z,9.57
2018-04-17T05:10:56.902Z,8.63
2018-04-17T05:13:24.179Z,8.10
2018-04-17T05:15:51.663Z,9.77
2018-04-17T05:18:18.938Z,10.00
2018-04-17T05:20:46.215Z,8.90
2018-04-17T05:23:13.485Z,10.30
2018-04-17T05:25:40.743Z,9.73
2018-04-17T05:28:08.024Z,9.87
2018-04-17T05:30:35.275Z,9.63
2018-04-17T05:33:02.551Z,9.20
2018-04-17T05:35:29.815Z,10.10
2018-04-17T05:37:57.090Z,10.17
2018-04-17T05:40:24.375Z,9.03
2018-04-17T05:42:51.631Z,9.13
2018-04-17T05:45:18.910Z,9.80
2018-04-17T05:47:46.168Z,8.07
2018-04-17T05:50:13.470Z,10.50
2018-04-17T05:52:41.055Z,9.53
2018-04-17T05:55:08.502Z,8.83
2018-04-17T05:57:35.747Z,9.67
2018-04-17T06:00:03.019Z,8.67
2018-04-17T06:02:30.284Z,9.33
2018-04-17T06:04:57.554Z,8.73
2018-04-17T06:07:24.825Z,9.37
2018-04-17T06:09:52.103Z,8.53
2018-04-17T06:12:19.359Z,8.37
2018-04-17T06:14:46.654Z,7.73
2018-04-17T06:17:13.916Z,8.53
2018-04-17T06:19:41.175Z,8.23
2018-04-17T06:22:08.451Z,9.07
2018-04-17T06:24:35.712Z,8.60
2018-04-17T06:27:02.994Z,8.73
2018-04-17T06:29:30.247Z,8.60
2018-04-17T06:31:57.518Z,9.47
2018-04-17T06:34:24.782Z,8.97
2018-04-17T06:36:52.055Z,9.83
2018-04-17T06:39:19.310Z,10.10
2018-04-17T06:41:46.655Z,9.10
2018-04-17T06:44:13.860Z,9.70
2018-04-17T06:46:41.139Z,9.47
2018-04-17T06:49:08.396Z,9.60
2018-04-17T06:51:35.674Z,10.37
2018-04-17T06:56:36.563Z,10.30
2018-04-17T06:59:03.829Z,9.63
2018-04-17T07:01:31.086Z,10.47
2018-04-17T07:03:58.368Z,10.80
2018-04-17T07:06:25.627Z,10.73
2018-04-17T07:08:52.912Z,10.20
2018-04-17T07:11:20.170Z,9.00
2018-04-17T07:13:47.448Z,10.67
2018-04-17T07:16:14.713Z,10.17
2018-04-17T07:18:41.994Z,10.43
2018-04-17T07:21:09.266Z,10.37
2018-04-17T07:23:36.593Z,9.60
2018-04-17T07:26:03.806Z,10.07
2018-04-17T07:28:31.094Z,10.43
2018-04-17T07:30:58.355Z,10.27
2018-04-17T07:33:25.648Z,9.60
2018-04-17T07:35:52.929Z,12.13
2018-04-17T07:38:20.226Z,10.83
2018-04-17T07:40:47.483Z,11.80
2018-04-17T07:43:14.751Z,13.13
2018-04-17T07:45:42.035Z,15.80
2018-04-17T07:48:15.917Z,16.37
2018-04-17T07:50:43.198Z,15.47
2018-04-17T07:53:10.458Z,13.03
2018-04-17T07:55:37.740Z,13.90
2018-04-17T07:58:05.007Z,14.60
2018-04-17T08:00:32.292Z,15.20
2018-04-17T08:02:59.555Z,14.30
2018-04-17T08:05:26.830Z,14.93
2018-04-17T08:07:54.099Z,15.63
2018-04-17T08:10:21.383Z,15.40
2018-04-17T08:12:48.651Z,16.17
2018-04-17T08:15:15.933Z,16.30
2018-04-17T08:17:43.191Z,18.60
2018-04-17T08:20:10.474Z,18.63
2018-04-17T08:22:37.736Z,17.90
2018-04-17T08:25:05.003Z,18.97
2018-04-17T08:27:32.287Z,19.00
2018-04-17T08:29:59.560Z,19.50
2018-04-17T08:32:26.839Z,20.93
2018-04-17T08:34:54.102Z,18.87
2018-04-17T08:37:21.380Z,19.80
2018-04-17T08:39:48.639Z,19.60
2018-04-17T08:42:15.928Z,19.73
2018-04-17T08:44:43.187Z,20.60
2018-04-17T08:47:10.473Z,19.20
2018-04-17T08:49:37.735Z,19.33
2018-04-17T08:52:05.021Z,20.10
2018-04-17T08:54:32.328Z,18.60
2018-04-17T08:56:59.563Z,18.43
2018-04-17T08:59:26.824Z,19.80
2018-04-17T09:01:54.104Z,19.87
2018-04-17T09:04:21.375Z,18.07
2018-04-17T09:06:48.639Z,18.93
2018-04-17T09:09:15.924Z,18.87
2018-04-17T09:11:43.202Z,18.50
2018-04-17T09:14:10.462Z,18.10
2018-04-17T09:16:37.732Z,18.67
2018-04-17T09:19:05.011Z,16.30
2018-04-17T09:21:32.279Z,16.40
2018-04-17T09:23:59.559Z,15.57
2018-04-17T09:26:26.827Z,14.90
2018-04-17T09:28:54.105Z,13.13
2018-04-17T09:31:21.359Z,9.13
2018-04-17T09:33:48.644Z,9.37
2018-04-17T09:36:15.899Z,9.90
2018-04-17T09:38:43.199Z,8.97
2018-04-17T09:41:10.453Z,9.00
2018-04-17T09:43:37.702Z,9.30
2018-04-17T09:46:04.985Z,11.37
2018-04-17T09:48:32.247Z,11.80
2018-04-17T09:50:59.526Z,10.20
2018-04-17T09:53:26.787Z,7.53
2018-04-17T09:55:54.061Z,9.10
2018-04-17T09:58:21.315Z,10.10
2018-04-17T10:00:59.250Z,11.57
2018-04-17T10:03:26.506Z,9.20
2018-04-17T10:05:53.797Z,11.07
2018-04-17T10:08:21.051Z,13.27
2018-04-17T10:10:48.330Z,12.97
2018-04-17T10:13:15.585Z,12.60
2018-04-17T10:15:42.875Z,11.83
2018-04-17T10:18:10.136Z,13.13
2018-04-17T10:20:37.415Z,11.17
2018-04-17T10:23:04.674Z,11.70
2018-04-17T10:25:31.974Z,10.10
2018-04-17T10:27:59.244Z,10.47
2018-04-17T10:30:26.511Z,11.20
2018-04-17T10:32:53.814Z,10.80
2018-04-17T10:35:21.075Z,13.27
2018-04-17T10:37:48.531Z,10.63
2018-04-17T10:40:15.772Z,11.20
2018-04-17T10:42:43.052Z,9.30
2018-04-17T10:45:10.304Z,9.40
2018-04-17T10:47:37.583Z,10.90
2018-04-17T10:50:04.848Z,9.97
2018-04-17T10:52:32.147Z,10.70
2018-04-17T10:54:59.412Z,11.70
2018-04-17T10:57:26.698Z,11.27
2018-04-17T10:59:53.955Z,10.40
2018-04-17T11:02:21.239Z,10.37
2018-04-17T11:04:48.510Z,11.37
2018-04-17T11:07:15.786Z,10.57
2018-04-17T11:09:43.038Z,10.30
2018-04-17T11:12:10.347Z,10.57
2018-04-17T11:14:37.607Z,10.90
2018-04-17T11:17:04.879Z,9.60
2018-04-17T11:19:32.151Z,9.73
2018-04-17T11:21:59.411Z,9.20
2018-04-17T11:24:26.684Z,9.50
2018-04-17T11:26:53.949Z,11.70
2018-04-17T11:29:21.295Z,10.37
2018-04-17T11:31:48.568Z,8.97
2018-04-17T11:34:15.847Z,10.50
2018-04-17T11:36:43.111Z,10.20
2018-04-17T11:39:10.389Z,10.30
2018-04-17T11:41:37.651Z,8.00
2018-04-17T11:44:04.926Z,8.20
2018-04-17T11:46:32.187Z,8.47
2018-04-17T11:48:59.455Z,9.03
2018-04-17T11:51:26.711Z,6.83
2018-04-17T11:53:53.987Z,7.23
2018-04-17T11:56:21.242Z,7.70
2018-04-17T11:58:48.516Z,7.20
2018-04-17T12:01:15.775Z,6.50
2018-04-17T12:03:43.046Z,6.50
2018-04-17T12:06:10.302Z,6.10
2018-04-17T12:08:37.558Z,5.37
2018-04-17T12:11:04.827Z,4.93
2018-04-17T12:13:32.076Z,5.10
2018-04-17T12:15:59.347Z,4.73
2018-04-17T12:18:26.592Z,5.33
2018-04-17T12:20:53.907Z,5.13
2018-04-17T12:23:21.151Z,4.47
2018-04-17T12:25:48.467Z,4.03
2018-04-17T12:28:15.679Z,4.50
2018-04-17T12:30:42.952Z,4.63
2018-04-17T12:33:10.207Z,5.40
2018-04-17T12:35:37.473Z,4.63
2018-04-17T12:38:04.748Z,5.00
2018-04-17T12:40:31.997Z,5.77
2018-04-17T12:42:59.248Z,4.93
2018-04-17T12:45:26.519Z,7.23
2018-04-17T12:47:53.835Z,5.30
2018-04-17T12:50:21.090Z,5.90
2018-04-17T12:52:48.361Z,5.93
2018-04-17T12:55:15.611Z,6.33
2018-04-17T12:57:42.871Z,5.53
2018-04-17T13:00:10.132Z,6.73
2018-04-17T13:02:37.399Z,6.03
2018-04-17T13:05:04.656Z,6.50
2018-04-17T13:07:31.922Z,5.93
2018-04-17T13:09:59.187Z,5.87
2018-04-17T13:12:26.464Z,5.80
2018-04-17T13:14:53.724Z,6.17
2018-04-17T13:17:20.990Z,5.87
2018-04-17T13:19:48.247Z,5.50
2018-04-17T13:22:15.537Z,4.73
2018-04-17T13:24:42.787Z,6.67
2018-04-17T13:27:10.049Z,5.90
2018-04-17T13:29:37.311Z,5.80
2018-04-17T13:32:04.569Z,5.60
2018-04-17T13:34:31.839Z,5.40
2018-04-17T13:36:59.170Z,5.73
2018-04-17T13:39:26.441Z,6.00
2018-04-17T13:41:53.698Z,5.93
2018-04-17T13:44:20.967Z,6.00
2018-04-17T13:46:48.223Z,6.27
2018-04-17T13:49:15.496Z,5.30
2018-04-17T13:51:42.752Z,4.73
2018-04-17T13:54:10.051Z,5.23
2018-04-17T13:56:37.267Z,5.63
2018-04-17T13:59:04.557Z,5.90
2018-04-17T14:01:31.796Z,5.13
2018-04-17T14:03:59.059Z,4.80
2018-04-17T14:06:26.409Z,5.23
2018-04-17T14:08:53.659Z,6.07
2018-04-17T14:11:20.943Z,5.83
2018-04-17T14:13:48.191Z,5.80
2018-04-17T14:16:15.467Z,5.33
2018-04-17T14:18:42.722Z,6.30
2018-04-17T14:21:09.999Z,6.23
2018-04-17T14:23:37.254Z,5.73
2018-04-17T14:26:04.530Z,5.50
2018-04-17T14:28:31.786Z,7.30
2018-04-17T14:30:59.048Z,6.57
2018-04-17T14:33:26.307Z,6.87
2018-04-17T14:35:53.580Z,5.47
2018-04-17T14:38:20.834Z,6.10
2018-04-17T14:40:48.106Z,6.43
2018-04-17T14:43:15.370Z,6.00
2018-04-17T14:45:42.634Z,5.93
2018-04-17T14:48:09.895Z,5.90
2018-04-17T14:50:37.171Z,5.60
2018-04-17T14:53:04.427Z,5.33
2018-04-17T14:55:31.683Z,5.63
2018-04-17T14:57:58.957Z,5.30
2018-04-17T15:00:26.206Z,5.20
2018-04-17T15:02:53.475Z,5.40
2018-04-17T15:05:20.735Z,5.13
2018-04-17T15:07:48.016Z,4.50
2018-04-17T15:10:15.267Z,5.03
2018-04-17T15:12:42.539Z,4.60
2018-04-17T15:15:09.799Z,4.20
2018-04-17T15:17:37.144Z,4.60
2018-04-17T15:20:04.410Z,4.70
2018-04-17T15:22:31.686Z,4.50
2018-04-17T15:24:58.935Z,5.47
2018-04-17T15:27:26.287Z,5.20
2018-04-17T15:29:53.555Z,4.37
2018-04-17T15:32:20.830Z,4.27
2018-04-17T15:34:48.094Z,4.00
2018-04-17T15:37:15.384Z,3.90
2018-04-17T15:39:42.644Z,3.50
2018-04-17T15:42:09.915Z,3.70
2018-04-17T15:44:37.258Z,3.63
2018-04-17T15:47:04.425Z,3.67
2018-04-17T15:49:31.688Z,3.70
2018-04-17T15:51:58.955Z,3.60
2018-04-17T15:54:26.207Z,3.80
2018-04-17T15:56:53.468Z,4.17
2018-04-17T15:59:20.731Z,3.43
2018-04-17T16:01:47.989Z,3.33
2018-04-17T16:04:15.255Z,3.60
2018-04-17T16:06:42.506Z,3.63
2018-04-17T16:09:09.784Z,3.43
2018-04-17T16:11:37.035Z,3.47
2018-04-17T16:14:04.311Z,3.30
2018-04-17T16:16:31.555Z,3.40
2018-04-17T16:18:58.823Z,3.40
2018-04-17T16:21:26.157Z,3.70
2018-04-17T16:23:53.358Z,3.00
2018-04-17T16:26:20.606Z,3.47
2018-04-17T16:28:47.903Z,3.70
2018-04-17T16:31:15.157Z,3.33
2018-04-17T16:33:42.414Z,3.70
2018-04-17T16:36:09.689Z,3.13
2018-04-17T16:38:36.940Z,3.97
2018-04-17T16:41:04.240Z,2.93
2018-04-17T16:43:31.480Z,3.83
2018-04-17T16:45:58.731Z,4.40
2018-04-17T16:48:26.019Z,8.10
2018-04-17T16:50:53.262Z,4.40
2018-04-17T16:53:20.539Z,3.47
2018-04-17T16:55:47.814Z,3.40
2018-04-17T16:58:15.104Z,5.70
2018-04-17T17:00:42.375Z,4.60
2018-04-17T17:03:09.640Z,4.37
2018-04-17T17:05:36.919Z,4.17
2018-04-17T17:08:04.195Z,5.10
2018-04-17T17:10:31.479Z,7.30
2018-04-17T17:12:58.731Z,6.80
2018-04-17T17:15:26.015Z,3.93
2018-04-17T17:17:53.268Z,3.57
2018-04-17T17:20:20.567Z,3.40
2018-04-17T17:22:47.807Z,3.80
2018-04-17T17:25:15.068Z,3.87
2018-04-17T17:27:42.339Z,3.27
2018-04-17T17:30:09.582Z,3.07
2018-04-17T17:32:36.859Z,3.70
2018-04-17T17:35:04.144Z,3.00
2018-04-17T17:37:31.407Z,4.03
2018-04-17T17:39:58.659Z,3.37
2018-04-17T17:42:25.947Z,2.70
2018-04-17T17:44:53.207Z,3.00
2018-04-17T17:47:20.459Z,3.40
2018-04-17T17:49:47.740Z,3.30
2018-04-17T17:52:14.991Z,3.03
2018-04-17T17:54:42.267Z,3.00
2018-04-17T17:57:09.522Z,3.00
2018-04-17T17:59:36.792Z,3.00
2018-04-17T18:02:04.089Z,2.83
2018-04-17T18:04:31.344Z,2.63
2018-04-17T18:06:59.459Z,2.90
2018-04-17T18:09:26.720Z,2.60
2018-04-17T18:11:54.000Z,3.50
2018-04-17T18:14:21.255Z,3.90
2018-04-17T18:16:48.507Z,3.00
2018-04-17T18:19:15.787Z,3.60
2018-04-17T18:21:43.039Z,2.77
2018-04-17T18:24:10.343Z,3.57
2018-04-17T18:26:37.618Z,3.23
2018-04-17T18:29:04.847Z,3.50
2018-04-17T18:31:32.128Z,3.30
2018-04-17T18:33:59.381Z,3.33
2018-04-17T18:36:26.811Z,3.40
2018-04-17T18:38:54.058Z,3.60
2018-04-17T18:41:21.308Z,3.30
2018-04-17T18:43:48.578Z,3.20
2018-04-17T18:46:15.826Z,3.50
2018-04-17T18:48:43.102Z,3.40
2018-04-17T18:51:10.355Z,3.80
2018-04-17T18:53:37.625Z,3.37
2018-04-17T18:56:04.888Z,3.60
2018-04-17T18:58:32.175Z,3.60
2018-04-17T19:00:59.418Z,3.40
2018-04-17T19:03:26.678Z,3.60
2018-04-17T19:05:53.961Z,3.50
2018-04-17T19:08:21.205Z,3.40
2018-04-17T19:10:48.484Z,3.23
2018-04-17T19:13:15.745Z,3.13
2018-04-17T19:15:43.016Z,3.37
2018-04-17T19:18:10.258Z,2.93
2018-04-17T19:20:37.542Z,3.23
2018-04-17T19:23:04.793Z,3.97
2018-04-17T19:25:32.042Z,4.07
2018-04-17T19:27:59.318Z,3.53
2018-04-17T19:30:26.598Z,3.53
2018-04-17T19:32:53.851Z,3.30
2018-04-17T19:35:21.131Z,3.63
2018-04-17T19:37:48.383Z,3.67
2018-04-17T19:40:15.714Z,3.70
2018-04-17T19:42:42.921Z,4.40
2018-04-17T19:45:10.203Z,4.60
2018-04-17T19:47:37.455Z,4.47
2018-04-17T19:50:04.735Z,4.83
2018-04-17T19:52:31.988Z,4.60
2018-04-17T19:54:59.278Z,4.80
2018-04-17T19:57:26.527Z,4.00
2018-04-17T19:59:53.811Z,4.80
2018-04-17T20:02:21.063Z,4.47
2018-04-17T20:04:48.340Z,4.80
2018-04-17T20:07:15.612Z,4.63
2018-04-17T20:09:42.883Z,5.23
2018-04-17T20:12:10.132Z,4.67
2018-04-17T20:14:37.443Z,4.80
2018-04-17T20:17:04.663Z,4.97
2018-04-17T20:19:31.939Z,4.93
2018-04-17T20:21:59.195Z,5.00
2018-04-17T20:24:26.467Z,5.97
2018-04-17T20:26:54.904Z,5.10
2018-04-17T20:29:23.555Z,5.80
2018-04-17T20:31:51.261Z,5.40
2018-04-17T20:34:18.719Z,5.20
2018-04-17T20:36:45.988Z,5.60
2018-04-17T20:39:13.242Z,6.17
2018-04-17T20:41:40.524Z,5.20
2018-04-17T20:44:07.774Z,5.80
2018-04-17T20:46:35.055Z,5.33
2018-04-17T20:49:02.314Z,5.03
2018-04-17T20:51:29.592Z,5.67
2018-04-17T20:53:56.834Z,6.23
2018-04-17T20:56:24.116Z,6.40
2018-04-17T20:58:51.381Z,5.70
2018-04-17T21:01:18.660Z,6.10
2018-04-17T21:03:45.916Z,6.03
2018-04-17T21:06:13.187Z,6.20
2018-04-17T21:08:40.434Z,6.70
2018-04-17T21:11:07.721Z,6.93
2018-04-17T21:13:34.985Z,7.33
2018-04-17T21:16:02.250Z,6.70
2018-04-17T21:18:29.507Z,6.00
2018-04-17T21:20:56.793Z,7.33
2018-04-17T21:23:24.048Z,7.00
2018-04-17T21:25:51.304Z,7.43
2018-04-17T21:28:18.576Z,6.10
2018-04-17T21:30:45.836Z,5.67
2018-04-17T21:33:13.103Z,7.33
2018-04-17T21:35:40.367Z,6.40
2018-04-17T21:38:07.643Z,6.80
2018-04-17T21:40:34.897Z,5.97
2018-04-17T21:43:02.168Z,5.63
2018-04-17T21:45:29.419Z,6.50
2018-04-17T21:47:56.703Z,5.90
2018-04-17T21:50:23.963Z,6.40
2018-04-17T21:52:51.236Z,5.73
2018-04-17T21:55:18.492Z,4.50
2018-04-17T21:57:45.763Z,5.57
2018-04-17T22:00:13.015Z,5.53
2018-04-17T22:02:40.283Z,5.53
2018-04-17T22:05:07.541Z,6.30
2018-04-17T22:07:34.820Z,6.90
2018-04-17T22:10:02.071Z,5.20
2018-04-17T22:12:29.323Z,5.60
2018-04-17T22:14:56.591Z,5.30
2018-04-17T22:17:23.842Z,5.70
2018-04-17T22:19:51.127Z,5.80
2018-04-17T22:22:18.388Z,5.40
2018-04-17T22:24:45.658Z,6.00
2018-04-17T22:27:12.911Z,5.73
2018-04-17T22:29:40.183Z,5.30
2018-04-17T22:32:07.439Z,5.57
2018-04-17T22:34:34.715Z,5.13
2018-04-17T22:37:01.979Z,4.70
2018-04-17T22:39:29.251Z,5.60
2018-04-17T22:41:56.511Z,5.20
2018-04-17T22:44:23.782Z,6.17
2018-04-17T22:46:51.031Z,5.13
2018-04-17T22:49:18.311Z,5.37
2018-04-17T22:51:45.576Z,5.63
2018-04-17T22:54:12.819Z,5.27
2018-04-17T22:56:40.082Z,5.07
2018-04-17T22:59:07.344Z,5.37
2018-04-17T23:01:34.606Z,5.70
2018-04-17T23:04:01.905Z,5.60
2018-04-17T23:06:29.152Z,5.90
2018-04-17T23:08:56.402Z,6.00
2018-04-17T23:11:23.671Z,5.73
2018-04-17T23:13:50.931Z,5.73
2018-04-17T23:16:18.207Z,6.30
2018-04-17T23:18:45.460Z,5.10
2018-04-17T23:21:12.732Z,5.30
2018-04-17T23:23:39.989Z,5.33
2018-04-17T23:26:07.251Z,4.87
2018-04-17T23:28:34.499Z,5.37
2018-04-17T23:31:01.813Z,4.60
2018-04-17T23:33:29.030Z,4.80
2018-04-17T23:35:56.283Z,5.03
2018-04-17T23:38:23.563Z,5.00
2018-04-17T23:40:50.811Z,4.83
2018-04-17T23:43:18.080Z,4.57
2018-04-17T23:45:45.332Z,4.83
2018-04-17T23:48:12.595Z,4.40
2018-04-17T23:50:39.844Z,5.60
2018-04-17T23:53:07.111Z,5.07
2018-04-17T23:55:34.366Z,5.33
2018-04-17T23:58:01.641Z,5.70
